Hauptseite
METAR-TAF:

METAR-TAF

Flughäfen :

Augsburg, Deutschland

Flughafen Augsburg

Breite: 48-26N, Länge: 010-56E, Höhe: 461 m

Beobachtung

Neuester Wetterbericht von vor 14 Minuten, um 11:20 UTC
Wind 12 kt aus Ost, variierte zwischen Nordost und Ost/Südost
Temperatur 12°C
Luftfeuchtigkeit 50%
Luftdruck 1024 hPa
Sichtweite 10 km oder mehr
keine Wolken unter 1500 m und keine Kumulonimbus oder Gewitterwolken

METAR: EDMA 251120Z 08012KT 050V120 CAVOK 12/02 Q1024

Zeit: 12:34 (11:34 UTC)

Prognose

Neuester Wetterbericht von vor 3 Stunden und 34 Minuten, um 08:00 UTC
Gültige Prognose vom 25 um 09 UTC bis 25 um 18 UTC
Wind 12 kt aus Ost/Nordost
Sichtweite 10 km oder mehr
Aufgelockert bewölkt in der Höhe von 1500 ft
Übergehend zu
vom 25 um 16 UTC bis 25 um 18 UTC
Wind 7 kt aus Ost/Nordost

TAF: EDMA 250800Z 2509/2518 07012KT 9999 SCT015 BECMG 2516/2518 07007KT

Wetterbeobachtungen und Prognosen von mehr als 4000 Flughäfen (METAR und TAF Bericht).

Die verfügbaren Stationen werden durch gelbe und rote Markierungen auf der Karte dargestellt.

Führen Sie die Maus auf sie, um den Namen der Station zu sehen.

Darauf klicken, um die Beobachtung von Wetterbeobachtungen und Prognosen zu sehen.

Um die Karte zu ändern : klicken Sie auf den grünen Tasten mit einem schwarzen Kreuz Zum Vergrößern, auf den grünen Button mit einem Gedankenstrich zu verkleinern, oder auf die grünen Pfeile für benachbarte Karten.


METAR-TAF: